createdAt,value
2023-11-10T00:00:42.452Z,7.00
2023-11-10T00:03:11.082Z,7.10
2023-11-10T00:05:51.171Z,7.10
2023-11-10T00:10:49.316Z,7.00
2023-11-10T00:13:18.370Z,6.90
2023-11-10T00:15:52.551Z,6.80
2023-11-10T00:18:24.164Z,6.80
2023-11-10T00:28:33.188Z,6.70
2023-11-10T00:33:53.267Z,6.50
2023-11-10T00:36:22.598Z,9.10
2023-11-10T00:38:52.667Z,6.60
2023-11-10T00:41:21.609Z,6.60
2023-11-10T00:43:51.251Z,7.90
2023-11-10T00:46:19.751Z,6.40
2023-11-10T00:48:48.247Z,6.40
2023-11-10T00:51:18.148Z,6.30
2023-11-10T00:53:46.280Z,6.30
2023-11-10T00:56:16.710Z,5.70
2023-11-10T00:58:45.046Z,6.30
2023-11-10T01:01:14.538Z,6.20
2023-11-10T01:03:44.536Z,6.30
2023-11-10T01:06:13.792Z,6.20
2023-11-10T01:08:51.927Z,6.30
2023-11-10T01:11:20.290Z,5.80
2023-11-10T01:13:48.431Z,6.10
2023-11-10T01:19:15.333Z,6.10
2023-11-10T01:21:43.568Z,6.60
2023-11-10T01:24:13.118Z,6.40
2023-11-10T01:26:41.489Z,5.80
2023-11-10T01:29:09.637Z,5.90
2023-11-10T01:31:38.437Z,6.00
2023-11-10T01:34:06.803Z,6.00
2023-11-10T01:36:38.570Z,6.00
2023-11-10T01:42:09.656Z,5.90
2023-11-10T01:44:38.165Z,6.00
2023-11-10T01:47:10.549Z,5.90
2023-11-10T01:49:40.189Z,5.90
2023-11-10T01:52:11.111Z,5.90
2023-11-10T01:59:42.984Z,5.80
2023-11-10T02:02:12.814Z,5.70
2023-11-10T02:04:43.301Z,5.80
2023-11-10T02:07:14.246Z,5.80
2023-11-10T02:09:43.427Z,5.80
2023-11-10T02:12:13.126Z,5.60
2023-11-10T02:14:42.072Z,5.80
2023-11-10T02:17:10.497Z,5.70
2023-11-10T02:19:40.004Z,5.70
2023-11-10T02:22:08.745Z,5.70
2023-11-10T02:24:43.252Z,5.70
2023-11-10T02:27:14.439Z,5.70
2023-11-10T02:32:12.987Z,5.90
2023-11-10T02:34:41.145Z,6.00
2023-11-10T02:37:09.630Z,5.90
2023-11-10T02:42:07.424Z,6.00
2023-11-10T02:44:37.432Z,6.00
2023-11-10T02:47:16.262Z,5.90
2023-11-10T02:49:45.184Z,5.80
2023-11-10T02:54:43.397Z,5.90
2023-11-10T02:59:53.781Z,6.10
2023-11-10T03:02:22.660Z,6.10
2023-11-10T03:09:49.285Z,6.00
2023-11-10T03:14:53.926Z,6.20
2023-11-10T03:17:26.097Z,6.00
2023-11-10T03:20:01.850Z,5.90
2023-11-10T03:22:31.594Z,6.50
2023-11-10T03:25:00.206Z,5.90
2023-11-10T03:29:58.859Z,5.80
2023-11-10T03:32:30.835Z,5.70
2023-11-10T03:34:59.312Z,5.70
2023-11-10T03:42:25.555Z,5.70
2023-11-10T03:47:23.079Z,5.60
2023-11-10T03:49:55.550Z,5.60
2023-11-10T03:52:24.508Z,5.60
2023-11-10T03:54:53.423Z,5.80
2023-11-10T03:59:50.317Z,5.50
2023-11-10T04:02:18.466Z,5.40
2023-11-10T04:04:47.143Z,5.60
2023-11-10T04:07:19.085Z,5.40
2023-11-10T04:09:47.822Z,5.50
2023-11-10T04:12:16.481Z,5.50
2023-11-10T04:14:46.148Z,5.60
2023-11-10T04:17:15.162Z,5.60
2023-11-10T04:22:13.048Z,5.60
2023-11-10T04:24:43.651Z,4.50
2023-11-10T04:34:52.807Z,5.60
2023-11-10T04:37:21.247Z,5.60
2023-11-10T04:39:56.873Z,5.60
2023-11-10T04:42:26.423Z,5.70
2023-11-10T04:44:54.708Z,5.70
2023-11-10T04:52:20.616Z,5.80
2023-11-10T04:57:19.790Z,5.80
2023-11-10T04:59:48.809Z,5.80
2023-11-10T05:02:33.923Z,5.80
2023-11-10T05:07:31.540Z,5.70
2023-11-10T05:12:36.270Z,5.70
2023-11-10T05:17:47.429Z,5.70
2023-11-10T05:20:18.392Z,5.60
2023-11-10T05:22:46.529Z,5.50
2023-11-10T05:25:14.935Z,5.50
2023-11-10T05:30:26.243Z,5.10
2023-11-10T05:37:52.434Z,5.40
2023-11-10T05:58:22.630Z,5.60
2023-11-10T06:06:35.340Z,5.90
2023-11-10T06:14:27.592Z,6.10
2023-11-10T06:47:42.853Z,6.60
2023-11-10T06:55:52.464Z,7.00
2023-11-10T07:00:51.442Z,6.90
2023-11-10T07:08:55.771Z,7.00
2023-11-10T07:16:31.409Z,7.30
2023-11-10T07:21:39.947Z,7.40
2023-11-10T07:24:10.637Z,7.30
2023-11-10T07:26:45.787Z,7.30
2023-11-10T07:29:16.395Z,7.40
2023-11-10T07:31:47.950Z,7.30
2023-11-10T07:34:16.654Z,7.40
2023-11-10T07:36:46.527Z,7.50
2023-11-10T07:39:15.563Z,7.60
2023-11-10T07:41:43.805Z,7.70
2023-11-10T07:44:13.478Z,8.10
2023-11-10T07:46:42.283Z,7.80
2023-11-10T07:49:13.508Z,7.80
2023-11-10T07:51:42.583Z,8.10
2023-11-10T07:54:11.117Z,7.90
2023-11-10T07:56:40.803Z,7.90
2023-11-10T07:59:09.275Z,8.00
2023-11-10T08:01:37.852Z,8.20
2023-11-10T08:04:07.357Z,8.10
2023-11-10T08:06:37.700Z,8.00
2023-11-10T08:09:06.921Z,7.50
2023-11-10T08:11:45.430Z,8.10
2023-11-10T08:14:18.218Z,8.80
2023-11-10T08:16:48.967Z,9.10
2023-11-10T08:19:18.675Z,8.30
2023-11-10T08:21:48.209Z,8.60
2023-11-10T08:24:16.780Z,8.60
2023-11-10T08:26:45.469Z,8.80
2023-11-10T08:29:14.403Z,8.60
2023-11-10T08:31:42.775Z,8.60
2023-11-10T08:34:11.368Z,8.70
2023-11-10T08:36:41.699Z,8.00
2023-11-10T08:39:11.809Z,9.00
2023-11-10T08:41:41.800Z,8.60
2023-11-10T08:44:09.876Z,8.70
2023-11-10T08:46:39.330Z,9.10
2023-11-10T08:49:07.512Z,9.20
2023-11-10T08:51:35.517Z,9.10
2023-11-10T08:54:03.741Z,8.90
2023-11-10T08:56:33.584Z,8.90
2023-11-10T08:59:01.630Z,8.80
2023-11-10T09:01:30.027Z,8.50
2023-11-10T09:04:08.512Z,8.60
2023-11-10T09:06:46.233Z,9.00
2023-11-10T09:09:15.340Z,8.80
2023-11-10T09:11:44.803Z,8.70
2023-11-10T09:14:15.311Z,8.90
2023-11-10T09:16:44.829Z,8.80
2023-11-10T09:19:13.874Z,8.40
2023-11-10T09:21:41.983Z,8.50
2023-11-10T09:24:10.196Z,8.60
2023-11-10T09:26:38.389Z,8.30
2023-11-10T09:29:08.102Z,8.30
2023-11-10T09:31:36.629Z,8.20
2023-11-10T09:34:06.198Z,8.60
2023-11-10T09:36:35.000Z,8.00
2023-11-10T09:39:03.359Z,7.90
2023-11-10T09:41:38.850Z,7.90
2023-11-10T09:44:13.137Z,7.90
2023-11-10T09:46:42.687Z,8.50
2023-11-10T09:49:11.244Z,7.90
2023-11-10T09:51:41.737Z,7.90
2023-11-10T09:54:11.549Z,8.20
2023-11-10T09:56:41.300Z,8.40
2023-11-10T09:59:12.736Z,7.50
2023-11-10T10:01:40.853Z,8.00
2023-11-10T10:04:10.729Z,8.00
2023-11-10T10:06:40.014Z,8.20
2023-11-10T10:09:10.592Z,7.90
2023-11-10T10:11:38.860Z,8.10
2023-11-10T10:14:07.160Z,7.90
2023-11-10T10:16:36.526Z,7.80
2023-11-10T10:19:05.785Z,8.30
2023-11-10T10:21:42.738Z,8.10
2023-11-10T10:24:13.620Z,8.20
2023-11-10T10:26:41.760Z,8.20
2023-11-10T10:29:10.305Z,8.70
2023-11-10T10:31:41.577Z,7.60
2023-11-10T10:34:12.648Z,8.50
2023-11-10T10:36:40.989Z,8.80
2023-11-10T10:39:12.900Z,8.90
2023-11-10T10:41:42.062Z,9.00
2023-11-10T10:44:11.320Z,8.90
2023-11-10T10:46:41.216Z,9.00
2023-11-10T10:49:13.895Z,9.40
2023-11-10T10:51:42.890Z,9.70
2023-11-10T10:54:11.336Z,9.70
2023-11-10T10:56:45.250Z,9.80
2023-11-10T10:59:14.500Z,9.80
2023-11-10T11:01:46.176Z,9.80
2023-11-10T11:04:36.243Z,9.60
2023-11-10T11:07:18.409Z,9.90
2023-11-10T11:10:08.762Z,9.70
2023-11-10T11:13:08.939Z,10.10
2023-11-10T11:15:44.474Z,9.90
2023-11-10T11:18:35.814Z,9.80
2023-11-10T11:21:04.704Z,9.70
2023-11-10T11:23:35.153Z,9.40
2023-11-10T11:26:05.964Z,9.80
2023-11-10T11:28:35.605Z,9.30
2023-11-10T11:31:10.534Z,9.70
2023-11-10T11:33:47.487Z,9.20
2023-11-10T11:36:18.380Z,8.90
2023-11-10T11:38:48.106Z,9.40
2023-11-10T11:41:17.438Z,9.00
2023-11-10T11:43:52.475Z,8.80
2023-11-10T11:46:20.677Z,7.50
2023-11-10T11:48:51.134Z,8.90
2023-11-10T11:51:19.208Z,8.70
2023-11-10T11:53:48.257Z,8.30
2023-11-10T11:56:16.487Z,8.10
2023-11-10T11:58:46.891Z,8.10
2023-11-10T12:01:17.318Z,8.30
2023-11-10T12:03:45.725Z,7.80
2023-11-10T12:06:15.976Z,7.90
2023-11-10T12:08:44.852Z,8.00
2023-11-10T12:11:12.955Z,8.00
2023-11-10T12:13:41.150Z,8.40
2023-11-10T12:16:14.591Z,8.30
2023-11-10T12:18:51.606Z,8.10
2023-11-10T12:21:21.923Z,8.20
2023-11-10T12:24:01.059Z,8.50
2023-11-10T12:26:30.739Z,8.10
2023-11-10T12:28:58.744Z,8.50
2023-11-10T12:31:27.136Z,8.50
2023-11-10T12:33:58.304Z,8.40
2023-11-10T12:36:31.236Z,8.70
2023-11-10T12:38:59.369Z,8.70
2023-11-10T12:41:27.780Z,8.90
2023-11-10T12:43:57.415Z,9.00
2023-11-10T12:46:25.858Z,8.90
2023-11-10T12:48:55.711Z,7.20
2023-11-10T12:51:32.597Z,8.80
2023-11-10T12:54:07.163Z,9.00
2023-11-10T12:56:36.922Z,9.00
2023-11-10T12:59:06.226Z,8.60
2023-11-10T13:01:35.300Z,9.10
2023-11-10T13:04:04.748Z,9.10
2023-11-10T13:06:34.815Z,9.00
2023-11-10T13:09:03.871Z,9.20
2023-11-10T13:11:32.149Z,9.00
2023-11-10T13:14:02.405Z,9.10
2023-11-10T13:16:31.721Z,9.30
2023-11-10T13:19:00.432Z,10.10
2023-11-10T13:21:29.009Z,9.60
2023-11-10T13:23:58.414Z,9.80
2023-11-10T13:26:27.587Z,10.00
2023-11-10T13:28:56.643Z,9.50
2023-11-10T13:31:30.014Z,9.40
2023-11-10T13:33:59.726Z,9.40
2023-11-10T13:36:31.936Z,9.50
2023-11-10T13:39:01.963Z,9.40
2023-11-10T13:41:36.992Z,9.80
2023-11-10T13:44:14.634Z,9.20
2023-11-10T13:46:44.043Z,9.10
2023-11-10T13:49:12.086Z,9.40
2023-11-10T13:51:40.529Z,9.60
2023-11-10T13:54:10.380Z,9.50
2023-11-10T13:56:42.276Z,9.50
2023-11-10T13:59:10.852Z,10.10
2023-11-10T14:01:38.952Z,10.30
2023-11-10T14:04:08.152Z,10.80
2023-11-10T14:06:36.898Z,11.30
2023-11-10T14:09:09.429Z,11.80
2023-11-10T14:11:39.065Z,11.80
2023-11-10T14:14:08.868Z,11.40
2023-11-10T14:16:37.476Z,10.70
2023-11-10T14:19:07.886Z,10.40
2023-11-10T14:21:36.424Z,9.80
2023-11-10T14:24:09.787Z,10.10
2023-11-10T14:26:44.339Z,9.50
2023-11-10T14:29:12.710Z,9.40
2023-11-10T14:31:40.723Z,8.90
2023-11-10T14:34:09.034Z,9.30
2023-11-10T14:36:37.889Z,9.50
2023-11-10T14:39:07.744Z,9.20
2023-11-10T14:41:36.081Z,9.20
2023-11-10T14:44:06.149Z,9.20
2023-11-10T14:46:37.655Z,9.30
2023-11-10T14:49:08.151Z,9.20
2023-11-10T14:51:43.766Z,9.20
2023-11-10T14:54:15.202Z,9.50
2023-11-10T14:56:44.761Z,9.50
2023-11-10T14:59:15.929Z,9.30
2023-11-10T15:01:45.591Z,8.90
2023-11-10T15:04:14.002Z,8.90
2023-11-10T15:06:42.320Z,9.30
2023-11-10T15:09:10.698Z,8.90
2023-11-10T15:11:39.072Z,8.80
2023-11-10T15:14:08.275Z,8.70
2023-11-10T15:16:40.912Z,8.70
2023-11-10T15:19:09.152Z,8.70
2023-11-10T15:21:38.219Z,8.60
2023-11-10T15:24:08.183Z,8.60
2023-11-10T15:26:36.219Z,8.50
2023-11-10T15:29:05.117Z,8.40
2023-11-10T15:31:36.448Z,8.70
2023-11-10T15:34:07.677Z,8.80
2023-11-10T15:36:42.596Z,8.30
2023-11-10T15:39:15.789Z,8.40
2023-11-10T15:41:44.979Z,8.70
2023-11-10T15:44:14.077Z,8.50
2023-11-10T15:46:43.007Z,8.10
2023-11-10T15:49:13.665Z,8.30
2023-11-10T15:51:53.351Z,8.00
2023-11-10T15:54:28.997Z,8.30
2023-11-10T15:57:03.234Z,8.30
2023-11-10T15:59:34.056Z,8.00
2023-11-10T16:02:03.007Z,8.30
2023-11-10T16:04:33.401Z,8.40
2023-11-10T16:07:02.893Z,7.90
2023-11-10T16:09:32.624Z,7.90
2023-11-10T16:12:00.548Z,7.80
2023-11-10T16:14:28.684Z,8.10
2023-11-10T16:16:56.787Z,8.60
2023-11-10T16:19:25.105Z,8.30
2023-11-10T16:21:54.468Z,8.00
2023-11-10T16:24:23.009Z,7.90
2023-11-10T16:26:51.468Z,7.80
2023-11-10T16:29:21.656Z,8.10
2023-11-10T16:31:50.024Z,7.60
2023-11-10T16:34:18.483Z,7.60
2023-11-10T16:36:47.132Z,7.70
2023-11-10T16:39:16.799Z,7.90
2023-11-10T16:41:51.203Z,7.90
2023-11-10T16:44:21.317Z,7.80
2023-11-10T16:46:56.021Z,7.70
2023-11-10T16:49:27.488Z,7.80
2023-11-10T16:52:00.320Z,7.70
2023-11-10T16:54:32.263Z,7.70
2023-11-10T16:57:00.279Z,7.70
2023-11-10T16:59:28.612Z,7.40
2023-11-10T17:01:57.870Z,7.30
2023-11-10T17:04:27.388Z,7.40
2023-11-10T17:06:55.925Z,7.60
2023-11-10T17:09:24.020Z,7.90
2023-11-10T17:11:53.726Z,7.30
2023-11-10T17:14:21.726Z,7.30
2023-11-10T17:16:51.699Z,7.50
2023-11-10T17:19:19.890Z,7.70
2023-11-10T17:21:49.518Z,7.30
2023-11-10T17:24:18.011Z,7.40
2023-11-10T17:26:46.050Z,7.50
2023-11-10T17:29:15.510Z,7.50
2023-11-10T17:31:43.564Z,7.50
2023-11-10T17:34:11.938Z,7.40
2023-11-10T17:36:39.905Z,7.40
2023-11-10T17:39:07.864Z,7.10
2023-11-10T17:41:36.995Z,7.50
2023-11-10T17:44:05.300Z,7.30
2023-11-10T17:46:34.773Z,7.00
2023-11-10T17:49:02.921Z,7.20
2023-11-10T17:51:31.989Z,7.30
2023-11-10T17:54:00.009Z,7.30
2023-11-10T17:56:28.341Z,7.20
2023-11-10T17:58:58.477Z,6.90
2023-11-10T18:01:27.080Z,6.90
2023-11-10T18:03:57.923Z,7.20
2023-11-10T18:06:26.723Z,6.90
2023-11-10T18:08:54.666Z,7.20
2023-11-10T18:11:27.345Z,7.20
2023-11-10T18:13:55.797Z,7.20
2023-11-10T18:16:23.932Z,6.80
2023-11-10T18:18:52.944Z,7.10
2023-11-10T18:21:23.491Z,6.80
2023-11-10T18:23:51.978Z,6.70
2023-11-10T18:26:21.314Z,7.00
2023-11-10T18:28:49.496Z,7.00
2023-11-10T18:31:20.113Z,6.80
2023-11-10T18:33:48.225Z,6.60
2023-11-10T18:36:17.722Z,6.90
2023-11-10T18:38:47.026Z,6.60
2023-11-10T18:41:15.324Z,6.90
2023-11-10T18:43:45.958Z,6.60
2023-11-10T18:46:15.234Z,6.80
2023-11-10T18:48:43.433Z,6.70
2023-11-10T18:51:13.045Z,6.70
2023-11-10T18:53:42.935Z,6.80
2023-11-10T18:56:12.447Z,6.80
2023-11-10T18:58:40.466Z,6.40
2023-11-10T19:01:13.480Z,6.60
2023-11-10T19:03:41.521Z,6.40
2023-11-10T19:06:12.079Z,6.50
2023-11-10T19:08:40.131Z,6.40
2023-11-10T19:11:08.899Z,6.50
2023-11-10T19:13:38.185Z,6.30
2023-11-10T19:16:07.135Z,6.50
2023-11-10T19:18:37.048Z,6.20
2023-11-10T19:21:05.236Z,6.40
2023-11-10T19:23:35.155Z,6.60
2023-11-10T19:26:03.282Z,6.20
2023-11-10T19:28:34.224Z,7.20
2023-11-10T19:31:04.583Z,6.50
2023-11-10T19:33:33.750Z,6.40
2023-11-10T19:36:01.800Z,6.40
2023-11-10T19:38:28.800Z,6.50
2023-11-10T19:40:58.616Z,6.30
2023-11-10T19:43:26.984Z,6.40
2023-11-10T19:45:54.941Z,6.40
2023-11-10T19:48:24.301Z,6.40
2023-11-10T19:50:53.008Z,6.40
2023-11-10T19:53:22.137Z,6.70
2023-11-10T19:55:52.108Z,6.60
2023-11-10T20:03:25.024Z,6.70
2023-11-10T20:05:53.220Z,6.90
2023-11-10T20:08:22.407Z,6.80
2023-11-10T20:10:50.985Z,6.90
2023-11-10T20:13:19.063Z,6.60
2023-11-10T20:15:48.945Z,6.80
2023-11-10T20:18:17.629Z,6.60
2023-11-10T20:20:47.165Z,6.40
2023-11-10T20:23:15.792Z,6.50
2023-11-10T20:25:44.739Z,6.60
2023-11-10T20:28:13.014Z,6.40
2023-11-10T20:30:42.325Z,6.60
2023-11-10T20:33:10.444Z,6.40
2023-11-10T20:35:38.689Z,6.60
2023-11-10T20:38:09.010Z,6.60
2023-11-10T20:40:40.101Z,6.70
2023-11-10T20:43:12.028Z,6.30
2023-11-10T20:53:38.361Z,6.30
2023-11-10T20:58:38.251Z,6.40
2023-11-10T21:03:36.151Z,6.30
2023-11-10T21:06:12.001Z,6.30
2023-11-10T21:09:01.208Z,6.20
2023-11-10T21:14:08.245Z,6.30
2023-11-10T21:16:39.178Z,6.40
2023-11-10T21:19:10.209Z,6.10
2023-11-10T21:21:39.808Z,6.10
2023-11-10T21:24:13.896Z,6.30
2023-11-10T21:26:46.710Z,5.90
2023-11-10T21:36:49.572Z,6.00
2023-11-10T21:39:37.223Z,6.00
2023-11-10T21:47:35.458Z,6.10
2023-11-10T21:55:12.737Z,5.90
2023-11-10T22:00:40.053Z,5.90
2023-11-10T22:03:12.840Z,5.90
2023-11-10T22:05:45.148Z,5.80
2023-11-10T22:11:15.509Z,5.50
2023-11-10T22:49:16.371Z,5.30
2023-11-10T22:51:55.635Z,5.20
2023-11-10T22:57:10.623Z,4.80
2023-11-10T23:02:34.906Z,5.00
2023-11-10T23:07:41.296Z,5.00
2023-11-10T23:10:15.762Z,4.80
2023-11-10T23:12:54.216Z,4.90
2023-11-10T23:18:02.465Z,4.80
2023-11-10T23:34:03.079Z,4.80
2023-11-10T23:36:38.413Z,4.70
2023-11-10T23:39:12.380Z,4.70
2023-11-10T23:41:41.697Z,4.70
2023-11-10T23:44:11.951Z,5.00
2023-11-10T23:46:40.553Z,4.50
2023-11-10T23:49:10.863Z,4.50
2023-11-10T23:51:41.343Z,4.50
2023-11-10T23:54:12.166Z,4.40
2023-11-10T23:56:44.483Z,5.00
2023-11-10T23:59:15.532Z,4.30
